Terminal Aerodrome Forecast
Issued by NWS

Home | Current Version | Previous Version | Graphics & Text | Print | Product List | Glossary On
Versions: 1 2 3 4 5 6 7 8 9 10 11 12 13 14 15 16 17 18 19 20 21 22 23 24 25 26 27 28 29 30 31
739
FTUS43 KLOT 221131
TAFMDW
TAF
KMDW 221131Z 2212/2312 27005KT P6SM FEW030 BKN250
     FM222100 12005KT P6SM SCT250
     FM230400 09004KT 5SM HZ SCT250=

USA.gov is the U.S. government's official web portal to all federal, state and local government web resources and services.